createdAt,value
2019-01-19T00:00:37.279Z,95518.00
2019-01-19T00:06:29.532Z,95503.00
2019-01-19T00:12:26.392Z,95498.00
2019-01-19T00:18:14.999Z,95489.00
2019-01-19T00:24:07.292Z,95483.00
2019-01-19T00:29:55.543Z,95481.00
2019-01-19T00:35:44.637Z,95485.00
2019-01-19T00:41:38.806Z,95486.00
2019-01-19T00:47:17.357Z,95486.00
2019-01-19T00:52:59.999Z,95478.00
2019-01-19T00:58:34.068Z,95483.00
2019-01-19T01:04:29.174Z,95485.00
2019-01-19T01:10:20.592Z,95469.00
2019-01-19T01:16:15.682Z,95472.00
2019-01-19T01:22:04.554Z,95463.00
2019-01-19T01:27:53.570Z,95463.00
2019-01-19T01:33:30.133Z,95453.00
2019-01-19T01:39:13.282Z,95450.00
2019-01-19T01:45:02.063Z,95450.00
2019-01-19T01:50:42.069Z,95444.00
2019-01-19T01:56:12.695Z,95440.00
2019-01-19T02:02:06.954Z,95447.00
2019-01-19T02:08:01.784Z,95449.00
2019-01-19T02:13:59.885Z,95441.00
2019-01-19T02:19:55.095Z,95438.00
2019-01-19T02:26:02.211Z,95435.00
2019-01-19T02:32:05.947Z,95444.00
2019-01-19T02:37:48.875Z,95440.00
2019-01-19T02:43:51.560Z,95426.00
2019-01-19T02:49:41.406Z,95430.00
2019-01-19T02:55:42.241Z,95418.00
2019-01-19T03:01:40.183Z,95418.00
2019-01-19T03:07:40.776Z,95420.00
2019-01-19T03:13:41.660Z,95414.00
2019-01-19T03:19:41.476Z,95415.00
2019-01-19T03:25:29.574Z,95408.00
2019-01-19T03:31:32.593Z,95408.00
2019-01-19T03:37:27.301Z,95421.00
2019-01-19T03:43:29.944Z,95410.00
2019-01-19T03:49:12.977Z,95402.00
2019-01-19T03:54:58.847Z,95408.00
2019-01-19T04:00:38.378Z,95403.00
2019-01-19T04:06:36.674Z,95398.00
2019-01-19T04:12:32.433Z,95402.00
2019-01-19T04:18:18.428Z,95394.00
2019-01-19T04:23:52.717Z,95393.00
2019-01-19T04:29:22.167Z,95394.00
2019-01-19T04:34:51.508Z,95385.00
2019-01-19T04:40:21.190Z,95395.00
2019-01-19T04:45:50.570Z,95394.00
2019-01-19T04:51:21.060Z,95400.00
2019-01-19T04:56:50.382Z,95386.00
2019-01-19T05:02:19.803Z,95387.00
2019-01-19T05:07:49.190Z,95387.00
2019-01-19T05:13:18.683Z,95384.00
2019-01-19T05:18:48.076Z,95387.00
2019-01-19T05:24:19.586Z,95392.00
2019-01-19T05:29:49.015Z,95383.00
2019-01-19T05:35:18.682Z,95384.00
2019-01-19T05:40:48.028Z,95387.00
2019-01-19T05:46:21.537Z,95400.00
2019-01-19T05:51:50.661Z,95396.00
2019-01-19T05:57:20.099Z,95395.00
2019-01-19T06:02:49.613Z,95390.00
2019-01-19T06:08:19.060Z,95399.00
2019-01-19T06:13:48.361Z,95399.00
2019-01-19T06:19:18.521Z,95388.00
2019-01-19T06:24:47.977Z,95398.00
2019-01-19T06:30:21.562Z,95401.00
2019-01-19T06:35:50.975Z,95394.00
2019-01-19T06:41:20.395Z,95393.00
2019-01-19T06:46:49.855Z,95395.00
2019-01-19T06:52:19.245Z,95392.00
2019-01-19T06:57:48.784Z,95396.00
2019-01-19T07:03:18.289Z,95395.00
2019-01-19T07:08:47.674Z,95403.00
2019-01-19T07:14:17.032Z,95406.00
2019-01-19T07:19:46.420Z,95408.00
2019-01-19T07:25:15.771Z,95410.00
2019-01-19T07:30:45.183Z,95407.00
2019-01-19T07:36:14.680Z,95410.00
2019-01-19T07:41:45.180Z,95404.00
2019-01-19T07:47:16.130Z,95406.00
2019-01-19T07:52:46.877Z,95410.00
2019-01-19T07:58:17.836Z,95413.00
2019-01-19T08:03:47.659Z,95420.00
2019-01-19T08:09:17.353Z,95429.00
2019-01-19T08:14:51.839Z,95429.00
2019-01-19T08:20:21.586Z,95427.00
2019-01-19T08:25:51.340Z,95434.00
2019-01-19T08:31:33.947Z,95424.00
2019-01-19T08:37:03.509Z,95428.00
2019-01-19T08:42:45.958Z,95421.00
2019-01-19T08:48:34.043Z,95422.00
2019-01-19T08:54:02.653Z,95416.00
2019-01-19T08:59:35.426Z,95423.00
2019-01-19T09:05:12.750Z,95420.00
2019-01-19T09:10:56.807Z,95426.00
2019-01-19T09:16:39.449Z,95425.00
2019-01-19T09:22:10.591Z,95413.00
2019-01-19T09:27:47.146Z,95415.00
2019-01-19T09:33:20.228Z,95410.00
2019-01-19T09:38:52.699Z,95423.00
2019-01-19T09:44:27.142Z,95412.00
2019-01-19T09:50:10.186Z,95415.00
2019-01-19T09:55:46.142Z,95411.00
2019-01-19T10:01:19.457Z,95412.00
2019-01-19T10:06:54.353Z,95410.00
2019-01-19T10:12:40.727Z,95407.00
2019-01-19T10:18:17.277Z,95395.00
2019-01-19T10:23:54.271Z,95401.00
2019-01-19T10:29:36.819Z,95396.00
2019-01-19T10:35:11.037Z,95392.00
2019-01-19T10:40:40.574Z,95392.00
2019-01-19T10:46:10.092Z,95378.00
2019-01-19T10:51:39.738Z,95379.00
2019-01-19T10:57:11.618Z,95386.00
2019-01-19T11:02:41.386Z,95376.00
2019-01-19T11:08:31.324Z,95368.00
2019-01-19T11:14:01.441Z,95349.00
2019-01-19T11:19:32.266Z,95344.00
2019-01-19T11:25:01.556Z,95349.00
2019-01-19T11:30:35.389Z,95345.00
2019-01-19T11:36:08.377Z,95338.00
2019-01-19T11:41:39.274Z,95335.00
2019-01-19T11:47:13.124Z,95331.00
2019-01-19T11:52:43.206Z,95315.00
2019-01-19T11:58:16.524Z,95330.00
2019-01-19T12:04:06.682Z,95324.00
2019-01-19T12:09:37.970Z,95313.00
2019-01-19T12:15:09.381Z,95311.00
2019-01-19T12:20:42.242Z,95299.00
2019-01-19T12:26:11.577Z,95297.00
2019-01-19T12:31:40.940Z,95288.00
2019-01-19T12:37:10.227Z,95276.00
2019-01-19T12:42:41.166Z,95282.00
2019-01-19T12:48:11.845Z,95278.00
2019-01-19T12:53:41.260Z,95275.00
2019-01-19T12:59:10.599Z,95269.00
2019-01-19T13:04:39.870Z,95266.00
2019-01-19T13:10:16.640Z,95269.00
2019-01-19T13:15:59.141Z,95256.00
2019-01-19T13:21:54.336Z,95258.00
2019-01-19T13:27:48.554Z,95256.00
2019-01-19T13:33:31.634Z,95252.00
2019-01-19T13:39:38.402Z,95248.00
2019-01-19T13:45:36.248Z,95248.00
2019-01-19T13:51:34.400Z,95247.00
2019-01-19T13:57:20.419Z,95250.00
2019-01-19T14:03:03.017Z,95247.00
2019-01-19T14:09:02.591Z,95242.00
2019-01-19T14:14:45.374Z,95243.00
2019-01-19T14:20:21.961Z,95238.00
2019-01-19T14:26:13.595Z,95228.00
2019-01-19T14:32:08.697Z,95229.00
2019-01-19T14:38:11.352Z,95227.00
2019-01-19T14:44:15.536Z,95232.00
2019-01-19T14:49:49.522Z,95226.00
2019-01-19T14:55:38.615Z,95222.00
2019-01-19T15:01:29.733Z,95225.00
2019-01-19T15:07:23.016Z,95225.00
2019-01-19T15:13:33.136Z,95207.00
2019-01-19T15:19:32.908Z,95213.00
2019-01-19T15:25:37.109Z,95212.00
2019-01-19T15:31:18.371Z,95210.00
2019-01-19T15:37:00.881Z,95202.00
2019-01-19T15:42:52.714Z,95194.00
2019-01-19T15:48:41.543Z,95181.00
2019-01-19T15:54:30.434Z,95198.00
2019-01-19T16:00:40.844Z,95178.00
2019-01-19T16:06:29.864Z,95182.00
2019-01-19T16:12:30.213Z,95175.00
2019-01-19T16:18:28.113Z,95183.00
2019-01-19T16:24:04.936Z,95183.00
2019-01-19T16:29:47.993Z,95185.00
2019-01-19T16:35:42.227Z,95183.00
2019-01-19T16:41:51.743Z,95187.00
2019-01-19T16:47:31.846Z,95181.00
2019-01-19T16:53:11.778Z,95176.00
2019-01-19T16:59:05.169Z,95168.00
2019-01-19T17:05:03.800Z,95178.00
2019-01-19T17:10:46.692Z,95165.00
2019-01-19T17:16:27.665Z,95179.00
2019-01-19T17:22:32.246Z,95167.00
2019-01-19T17:28:30.108Z,95165.00
2019-01-19T17:34:12.753Z,95165.00
2019-01-19T17:40:26.214Z,95170.00
2019-01-19T17:46:22.906Z,95157.00
2019-01-19T17:52:25.763Z,95174.00
2019-01-19T17:58:20.508Z,95162.00
2019-01-19T18:04:06.499Z,95162.00
2019-01-19T18:10:13.756Z,95163.00
2019-01-19T18:16:02.366Z,95158.00
2019-01-19T18:21:38.788Z,95150.00
2019-01-19T18:27:32.177Z,95158.00
2019-01-19T18:33:14.614Z,95137.00
2019-01-19T18:38:59.919Z,95144.00
2019-01-19T18:44:35.927Z,95132.00
2019-01-19T18:50:32.341Z,95131.00
2019-01-19T18:56:51.602Z,95131.00
2019-01-19T19:02:40.390Z,95132.00
2019-01-19T19:08:17.377Z,95136.00
2019-01-19T19:14:11.956Z,95132.00
2019-01-19T19:20:11.672Z,95127.00
2019-01-19T19:26:09.523Z,95124.00
2019-01-19T19:31:45.950Z,95134.00
2019-01-19T19:37:22.547Z,95128.00
2019-01-19T19:43:16.158Z,95127.00
2019-01-19T19:49:19.985Z,95129.00
2019-01-19T19:54:50.670Z,95128.00
2019-01-19T20:00:20.129Z,95122.00
2019-01-19T20:05:49.575Z,95114.00
2019-01-19T20:11:19.383Z,95115.00
2019-01-19T20:16:48.672Z,95114.00
2019-01-19T20:22:17.977Z,95118.00
2019-01-19T20:27:47.271Z,95124.00
2019-01-19T20:33:16.561Z,95116.00
2019-01-19T20:38:46.082Z,95116.00
2019-01-19T20:44:15.519Z,95116.00
2019-01-19T20:49:44.765Z,95120.00
2019-01-19T20:55:14.277Z,95120.00
2019-01-19T21:00:43.549Z,95114.00
2019-01-19T21:06:12.835Z,95107.00
2019-01-19T21:11:42.107Z,95111.00
2019-01-19T21:17:12.351Z,95108.00
2019-01-19T21:22:41.651Z,95108.00
2019-01-19T21:28:10.921Z,95118.00
2019-01-19T21:33:40.213Z,95106.00
2019-01-19T21:39:09.634Z,95110.00
2019-01-19T21:44:58.252Z,95103.00
2019-01-19T21:50:27.521Z,95110.00
2019-01-19T21:55:56.806Z,95104.00
2019-01-19T22:01:26.133Z,95103.00
2019-01-19T22:06:55.403Z,95107.00
2019-01-19T22:12:24.678Z,95111.00
2019-01-19T22:17:54.826Z,95113.00
2019-01-19T22:23:24.114Z,95102.00
2019-01-19T22:28:53.418Z,95116.00
2019-01-19T22:34:22.709Z,95120.00
2019-01-19T22:39:51.988Z,95118.00
2019-01-19T22:45:21.371Z,95119.00
2019-01-19T22:50:50.661Z,95112.00
2019-01-19T22:56:19.945Z,95113.00
2019-01-19T23:01:49.647Z,95111.00
2019-01-19T23:07:19.012Z,95112.00
2019-01-19T23:12:48.444Z,95098.00
2019-01-19T23:18:17.895Z,95096.00
2019-01-19T23:23:47.233Z,95091.00
2019-01-19T23:29:16.565Z,95079.00
2019-01-19T23:34:45.873Z,95090.00
2019-01-19T23:40:15.448Z,95082.00
2019-01-19T23:45:44.978Z,95079.00
2019-01-19T23:51:14.263Z,95070.00
2019-01-19T23:56:43.628Z,95078.00
